PWSweather.com
Personal Weather Stations
Station Observations
KPAEXPOR2
Wellington Estates, Export, PA 15632

Wellington EstatesExport, PA 15632

Lat: 40.446, Lon: -79.592

Elevation: 1286

Station Type: PWS1000-TD

http://www.westmorelandweather.com

Latest ConditionsUpdated 9:45:02 AM EDT Tuesday, Sep 2, 2014
Currently Today's Max Today's Min Today's Average
Temperature 75.2°F24.0°C 75.2°F24.0°C 68.2°F20.1°C 69.9°F21.1°C
Dew Point 72.4°F22.4°C 72.6°F22.6°C 68.2°F20.1°C 69.7°F20.9°C
Winds 5.5 mph S8.9 kmh S 6.3 mph S10.1 kmh S - 3.6 mph 5.8 kmh
Wind Gusts 6.9 mph11.1 kmh 9.2 mph14.8 kmh - -
Humidity 91% 100% 91% 99%
Pressure 30.02 in1016.6 mb 30.02 in1016.6 mb 29.97 in1014.9 mb -
Hour Temp Dew Point Humidity Winds Wind Gusts Pressure Precip Precip Rate Daily Precip Total
09:45 AM 75.2°F24.0°C 72.4°F22.4°C 91% 5.5 mph S8.9 kmh S 6.9 mph11.1 kmh 30.02 in1016.6 mb 0.00 in0.0 mm 0.00 in/hr0.0 mm/hr 0.00 in0.0 mm
09:30 AM 74.1°F23.4°C 72.6°F22.6°C 95% 6.3 mph S10.1 kmh S 8.3 mph13.4 kmh 30.02 in1016.6 mb 0.00 in0.0 mm 0.00 in/hr0.0 mm/hr 0.00 in0.0 mm
09:15 AM 73.0°F22.8°C 72.5°F22.5°C 98% 4.9 mph S7.9 kmh S 7.6 mph12.2 kmh 30.01 in1016.3 mb 0.00 in0.0 mm 0.00 in/hr0.0 mm/hr 0.00 in0.0 mm
09:00 AM 71.4°F21.9°C 71.4°F21.9°C 100% 3.7 mph S6.0 kmh S 6.9 mph11.1 kmh 30.02 in1016.6 mb 0.00 in0.0 mm 0.00 in/hr0.0 mm/hr 0.00 in0.0 mm
08:45 AM 71.0°F21.7°C 71.1°F21.7°C 100% 5.4 mph SSW8.7 kmh SSW 7.6 mph12.2 kmh 30.02 in1016.6 mb 0.00 in0.0 mm 0.00 in/hr0.0 mm/hr 0.00 in0.0 mm
08:30 AM 70.7°F21.5°C 70.7°F21.5°C 100% 4.2 mph S6.8 kmh S 9.2 mph14.8 kmh 30.02 in1016.6 mb 0.00 in0.0 mm 0.00 in/hr0.0 mm/hr 0.00 in0.0 mm
08:15 AM 69.8°F21.0°C 69.8°F21.0°C 100% 4.7 mph S7.6 kmh S 7.6 mph12.2 kmh 30.02 in1016.6 mb 0.00 in0.0 mm 0.00 in/hr0.0 mm/hr 0.00 in0.0 mm
08:00 AM 68.9°F20.5°C 68.9°F20.5°C 100% 3.9 mph S6.3 kmh S 5.4 mph8.7 kmh 30.01 in1016.3 mb 0.00 in0.0 mm 0.00 in/hr0.0 mm/hr 0.00 in0.0 mm
07:45 AM 68.3°F20.2°C 68.4°F20.2°C 100% 3.5 mph S5.6 kmh S 4.5 mph7.2 kmh 30.01 in1016.3 mb 0.00 in0.0 mm 0.00 in/hr0.0 mm/hr 0.00 in0.0 mm
07:30 AM 68.2°F20.1°C 68.2°F20.1°C 100% 2.9 mph S4.7 kmh S 5.4 mph8.7 kmh 30.00 in1015.9 mb 0.00 in0.0 mm 0.00 in/hr0.0 mm/hr 0.00 in0.0 mm
07:15 AM 68.2°F20.1°C 68.2°F20.1°C 100% 3.0 mph S4.8 kmh S 4.5 mph7.2 kmh 30.01 in1016.3 mb 0.00 in0.0 mm 0.00 in/hr0.0 mm/hr 0.00 in0.0 mm
07:00 AM 68.3°F20.2°C 68.4°F20.2°C 100% 3.0 mph S4.8 kmh S 3.8 mph6.1 kmh 30.01 in1016.3 mb 0.00 in0.0 mm 0.00 in/hr0.0 mm/hr 0.00 in0.0 mm
06:45 AM 68.5°F20.3°C 68.6°F20.3°C 100% 2.8 mph S4.5 kmh S 4.5 mph7.2 kmh 30.00 in1015.9 mb 0.00 in0.0 mm 0.00 in/hr0.0 mm/hr 0.00 in0.0 mm
06:30 AM 68.9°F20.5°C 68.9°F20.5°C 100% 3.0 mph S4.8 kmh S 5.4 mph8.7 kmh 30.00 in1015.9 mb 0.00 in0.0 mm 0.00 in/hr0.0 mm/hr 0.00 in0.0 mm
06:15 AM 68.9°F20.5°C 68.9°F20.5°C 100% 3.2 mph SSW5.1 kmh SSW 6.0 mph9.7 kmh 30.00 in1015.9 mb 0.00 in0.0 mm 0.00 in/hr0.0 mm/hr 0.00 in0.0 mm
06:00 AM 69.1°F20.6°C 69.1°F20.6°C 100% 3.1 mph SSW5.0 kmh SSW 5.4 mph8.7 kmh 30.00 in1015.9 mb 0.00 in0.0 mm 0.00 in/hr0.0 mm/hr 0.00 in0.0 mm
05:45 AM 69.1°F20.6°C 69.1°F20.6°C 100% 3.8 mph S6.1 kmh S 6.0 mph9.7 kmh 29.99 in1015.6 mb 0.00 in0.0 mm 0.00 in/hr0.0 mm/hr 0.00 in0.0 mm
05:30 AM 69.1°F20.6°C 69.1°F20.6°C 100% 4.2 mph S6.8 kmh S 6.0 mph9.7 kmh 29.99 in1015.6 mb 0.00 in0.0 mm 0.00 in/hr0.0 mm/hr 0.00 in0.0 mm
05:15 AM 68.9°F20.5°C 68.9°F20.5°C 100% 3.2 mph SSE5.1 kmh SSE 5.4 mph8.7 kmh 29.98 in1015.2 mb 0.00 in0.0 mm 0.00 in/hr0.0 mm/hr 0.00 in0.0 mm
05:00 AM 68.7°F20.4°C 68.7°F20.4°C 100% 2.8 mph SSW4.5 kmh SSW 4.5 mph7.2 kmh 29.98 in1015.2 mb 0.00 in0.0 mm 0.00 in/hr0.0 mm/hr 0.00 in0.0 mm
04:45 AM 68.5°F20.3°C 68.6°F20.3°C 100% 2.6 mph S4.2 kmh S 4.5 mph7.2 kmh 29.97 in1014.9 mb 0.00 in0.0 mm 0.00 in/hr0.0 mm/hr 0.00 in0.0 mm
04:30 AM 68.5°F20.3°C 68.6°F20.3°C 100% 2.3 mph SSW3.7 kmh SSW 4.5 mph7.2 kmh 29.98 in1015.2 mb 0.00 in0.0 mm 0.00 in/hr0.0 mm/hr 0.00 in0.0 mm
04:15 AM 68.5°F20.3°C 68.6°F20.3°C 100% 2.5 mph SSW4.0 kmh SSW 4.5 mph7.2 kmh 29.98 in1015.2 mb 0.00 in0.0 mm 0.00 in/hr0.0 mm/hr 0.00 in0.0 mm
04:00 AM 68.9°F20.5°C 68.9°F20.5°C 100% 3.4 mph S5.5 kmh S 5.4 mph8.7 kmh 29.98 in1015.2 mb 0.00 in0.0 mm 0.00 in/hr0.0 mm/hr 0.00 in0.0 mm
03:45 AM 68.7°F20.4°C 68.7°F20.4°C 100% 3.8 mph S6.1 kmh S 5.4 mph8.7 kmh 29.98 in1015.2 mb 0.00 in0.0 mm 0.00 in/hr0.0 mm/hr 0.00 in0.0 mm
03:30 AM 69.1°F20.6°C 69.1°F20.6°C 100% 3.3 mph S5.3 kmh S 5.4 mph8.7 kmh 29.98 in1015.2 mb 0.00 in0.0 mm 0.00 in/hr0.0 mm/hr 0.00 in0.0 mm
03:15 AM 69.2°F20.7°C 69.3°F20.7°C 100% 2.8 mph S4.5 kmh S 4.5 mph7.2 kmh 29.98 in1015.2 mb 0.00 in0.0 mm 0.00 in/hr0.0 mm/hr 0.00 in0.0 mm
03:00 AM 69.6°F20.9°C 69.6°F20.9°C 100% 2.9 mph S4.7 kmh S 6.0 mph9.7 kmh 29.98 in1015.2 mb 0.00 in0.0 mm 0.00 in/hr0.0 mm/hr 0.00 in0.0 mm
02:45 AM 69.8°F21.0°C 69.8°F21.0°C 100% 2.9 mph S4.7 kmh S 5.4 mph8.7 kmh 29.98 in1015.2 mb 0.00 in0.0 mm 0.00 in/hr0.0 mm/hr 0.00 in0.0 mm
02:30 AM 70.0°F21.1°C 70.0°F21.1°C 100% 2.5 mph S4.0 kmh S 5.4 mph8.7 kmh 29.99 in1015.6 mb 0.00 in0.0 mm 0.00 in/hr0.0 mm/hr 0.00 in0.0 mm
02:15 AM 70.3°F21.3°C 70.1°F21.2°C 99% 2.2 mph SSW3.5 kmh SSW 3.1 mph5.0 kmh 30.00 in1015.9 mb 0.00 in0.0 mm 0.00 in/hr0.0 mm/hr 0.00 in0.0 mm
02:00 AM 70.5°F21.4°C 70.2°F21.2°C 99% 4.6 mph S7.4 kmh S 6.9 mph11.1 kmh 29.99 in1015.6 mb 0.00 in0.0 mm 0.00 in/hr0.0 mm/hr 0.00 in0.0 mm
01:45 AM 70.5°F21.4°C 70.2°F21.2°C 99% 5.0 mph S8.0 kmh S 7.6 mph12.2 kmh 29.99 in1015.6 mb 0.00 in0.0 mm 0.00 in/hr0.0 mm/hr 0.00 in0.0 mm
01:30 AM 70.5°F21.4°C 70.5°F21.4°C 100% 4.7 mph S7.6 kmh S 6.0 mph9.7 kmh 30.00 in1015.9 mb 0.00 in0.0 mm 0.00 in/hr0.0 mm/hr 0.00 in0.0 mm
01:15 AM 70.3°F21.3°C 70.4°F21.3°C 100% 3.4 mph S5.5 kmh S 5.4 mph8.7 kmh 30.00 in1015.9 mb 0.00 in0.0 mm 0.00 in/hr0.0 mm/hr 0.00 in0.0 mm
01:00 AM 70.5°F21.4°C 70.5°F21.4°C 100% 5.0 mph S8.0 kmh S 8.3 mph13.4 kmh 30.00 in1015.9 mb 0.00 in0.0 mm 0.00 in/hr0.0 mm/hr 0.00 in0.0 mm
12:45 AM 70.3°F21.3°C 70.4°F21.3°C 100% 3.4 mph SW5.5 kmh SW 4.5 mph7.2 kmh 30.00 in1015.9 mb 0.00 in0.0 mm 0.00 in/hr0.0 mm/hr 0.00 in0.0 mm
12:30 AM 70.7°F21.5°C 70.4°F21.3°C 99% 1.8 mph SSW2.9 kmh SSW 3.1 mph5.0 kmh 30.00 in1015.9 mb 0.00 in0.0 mm 0.00 in/hr0.0 mm/hr 0.00 in0.0 mm
12:15 AM 71.0°F21.7°C 70.8°F21.6°C 99% 3.7 mph SW6.0 kmh SW 8.3 mph13.4 kmh 30.00 in1015.9 mb 0.00 in0.0 mm 0.00 in/hr0.0 mm/hr 0.00 in0.0 mm
12:00 AM 71.2°F21.8°C 71.0°F21.7°C 99% 4.4 mph SW7.1 kmh SW 5.4 mph8.7 kmh 30.00 in1015.9 mb 0.00 in0.0 mm 0.00 in/hr0.0 mm/hr 0.00 in0.0 mm